Resultado TF Obelisco

  •  

    GERAL CAT PEITO NOME FX ETARIA EQUIPE TEMPO PACE
    8 1 1928 Leandro Zani M3034 BÁSICA 00:37:46 03:47
    17 1 1257 Ricardo Santos M5054 BÁSICA 00:40:14 04:01
    45 8 1793 Carlos Eduardo Silva M4044 BÁSICA 00:42:52 04:17
    49 11 2164 Flavio Ferreira M3034 BÁSICA 00:43:04 04:18
    52 7 1389 Anderson Haubrich M4549 BÁSICA 00:43:25 04:21
    56 9 1665 Beto Machado M4549 BÁSICA 00:43:39 04:22
    73 13 1875 Marcos Sanches M4549 BÁSICA 00:44:30 04:27
    127 24 2204 Fernando Ferreira M4549 BÁSICA 00:46:29 04:39
    295 13 1640 Carlos Muller M5054 BÁSICA 00:50:04 05:00
    583 28 1578 Alexandre Leite M5054 BÁSICA 00:53:59 05:24
    703 74 1791 Carlos Robson dos Santos M4549 DXC 00:55:22 05:32
    880 91 1305 Ricardo Takagi M4549 DXC 00:57:16 05:44
    946 96 1471 Fred M4549 BÁSICA 00:58:03 05:48
    968 99 1681 Renato Saab M4549 BÁSICA 00:58:11 05:49
    974 25 2893 Celso Yuji M5559 BÁSICA 00:58:14 05:49
    1148 132 2189 Rony Ribeiro M4044 DXC 00:59:52 05:59
    1573 42 1790 Brito M5559 BÁSICA 01:04:12 06:25
    1674 22 2524 Miro M6569 BÁSICA 01:05:25 06:33

     

     

    GERAL CAT PEITO NOME FX ETARIA EQUIPE TEMPO PACE
    403 12 1304 Arisa Okawa F4549 BÁSICA 00:51:42 05:10
    543 1388 Silvia Baraldi F4549 BÁSICA 00:53:37 05:22
    763 28 2169 Jeniffer Rojas Huertas F3539 BÁSICA 00:55:53 05:35
    993 37 1682 Camila Saab F4044 DXC 00:58:27 05:51
    1286 64 1930 Erika Machado F4044 BÁSICA 01:00:59 06:06
    1285 121 1876 Maricy Sanches F4549 BÁSICA 01:00:59 06:06
    1527 11 1387 Marina Jugue F6064 BÁSICA 01:03:34 06:21
    1531 192 1828 Thais Castro Coelho F3539 BÁSICA 01:03:37 06:22
    1886 107 1671 Cristiani Furlani F3539 BÁSICA 01:08:35 06:51
    1998 25 1515 Li-7 F5559 BÁSICA 01:10:56 07:06
    2117 49 1799 Adriana Cubo F5054 BÁSICA 01:14:15 07:25
    2162 141 2202 Simone Del Nero F4044 BÁSICA 01:16:31 07:39
    2284 149 1564 Marcia Mayumi Ganeko F4044 BÁSICA 01:22:46 08:17
    2323 141 1792 Simone Ravanini F4549 BÁSICA 01:36:26 09:39

     

     

    GERAL CAT PEITO NOME FX ETARIA EQUIPE TEMPO PACE
    72 16 5329 João Pedro Solano M3539 BÁSICA 00:23:01 04:36
    120 3 5331 Alvaro Siqueira Mascarenhas M2024 GRÃO 00:24:35 04:55
    192 22 6111 Daniel Schatz Woweruhn M2529 GRÃO 00:25:54 05:11
    238 4 4749 Felipe Machado M1617 BÁSICA 00:26:41 05:20
    253 46 5328 Fernando Edu Colasuonno M3539 GRÃO 00:26:55 05:23

     

     

    GERAL CAT PEITO NOME FX ETARIA EQUIPE TEMPO PACE
    1128 32 6144 Sandra Rosa F4549 BÁSICA 00:34:10 06:50
    1222 100 4972 Joana Mie Nomi F3539 BÁSICA 00:34:50 06:58
    1467 130 5327 Adriana Constantino F3539 GRÃO 00:36:38 07:20
    1794 63 4592 Andrea Bueno Salinas F4549 BÁSICA 00:39:17 07:51
    1888 5 3397 Edna Fernandez F7099 BÁSICA 00:40:17 08:03
    1901 15 3392 Sueli Munhoz Furlani F6064 BÁSICA 00:40:25 08:05
    2377 270 4763 Pollyana Menezes Araujo F3539 BÁSICA 00:54:26 10:53
    2378 76 4351 Silvana Cole F5054 BÁSICA 00:54:29 10:54